Terminal Aerodrome Forecast
Issued by NWS Memphis, TN

Home | Current Version | Previous Version | Text Only | Print | Product List | Glossary On
Versions: 1 2 3 4 5 6 7 8 9 10 11 12 13 14 15 16 17 18 19 20 21 22 23 24 25 26 27 28 29 30 31 32 33 34
332
FTUS44 KMEG 192046 AAB
TAFMEM
TAF AMD
KMEM 192046Z 1921/2018 19011KT P6SM VCSH SCT010 BKN020 OVC090
      TEMPO 1921/1924 5SM -SHRA SCT020 OVC090
     FM200200 21006KT P6SM VCSH SCT008 OVC015
     FM200600 20007KT 4SM -DZ BR OVC008
     FM201600 20009KT P6SM VCSH OVC010=

USA.gov is the U.S. government's official web portal to all federal, state and local government web resources and services.